createdAt,value
2022-08-29T00:00:34.238Z,78.30
2022-08-29T00:01:33.888Z,86.80
2022-08-29T00:02:33.966Z,82.10
2022-08-29T00:03:33.878Z,74.40
2022-08-29T00:04:34.314Z,84.70
2022-08-29T00:05:33.838Z,74.70
2022-08-29T00:06:33.817Z,79.60
2022-08-29T00:07:33.807Z,82.50
2022-08-29T00:08:33.814Z,81.70
2022-08-29T00:09:34.157Z,89.00
2022-08-29T00:10:33.766Z,74.70
2022-08-29T00:11:33.786Z,82.30
2022-08-29T00:12:33.755Z,74.20
2022-08-29T00:13:33.726Z,73.60
2022-08-29T00:14:34.066Z,71.70
2022-08-29T00:15:33.702Z,76.40
2022-08-29T00:16:34.759Z,85.50
2022-08-29T00:17:33.685Z,79.20
2022-08-29T00:18:33.675Z,78.70
2022-08-29T00:19:33.665Z,76.40
2022-08-29T00:20:34.365Z,79.10
2022-08-29T00:21:33.626Z,75.30
2022-08-29T00:22:33.625Z,80.00
2022-08-29T00:23:33.595Z,75.30
2022-08-29T00:24:33.585Z,80.90
2022-08-29T00:25:34.003Z,81.00
2022-08-29T00:26:33.583Z,70.60
2022-08-29T00:27:33.547Z,78.90
2022-08-29T00:28:33.536Z,87.10
2022-08-29T00:29:33.524Z,85.90
2022-08-29T00:30:33.853Z,74.20
2022-08-29T00:31:33.578Z,81.90
2022-08-29T00:32:33.492Z,89.90
2022-08-29T00:33:33.462Z,75.40
2022-08-29T00:34:33.820Z,81.20
2022-08-29T00:35:33.433Z,82.90
2022-08-29T00:36:33.431Z,77.10
2022-08-29T00:37:33.421Z,83.70
2022-08-29T00:38:33.394Z,90.40
2022-08-29T00:39:33.403Z,86.40
2022-08-29T00:40:33.821Z,82.70
2022-08-29T00:41:33.384Z,82.20
2022-08-29T00:42:33.358Z,82.50
2022-08-29T00:43:33.330Z,85.80
2022-08-29T00:44:33.331Z,76.70
2022-08-29T00:45:33.827Z,94.20
2022-08-29T00:46:33.311Z,78.30
2022-08-29T00:47:33.280Z,81.30
2022-08-29T00:48:33.278Z,89.40
2022-08-29T00:49:33.253Z,79.80
2022-08-29T00:50:33.632Z,83.10
2022-08-29T00:51:33.249Z,79.60
2022-08-29T00:52:33.219Z,79.20
2022-08-29T00:53:33.240Z,83.20
2022-08-29T00:54:33.190Z,77.30
2022-08-29T00:55:33.629Z,76.80
2022-08-29T00:56:33.181Z,82.70
2022-08-29T00:57:33.168Z,79.20
2022-08-29T00:58:33.140Z,80.10
2022-08-29T00:59:33.171Z,84.50
2022-08-29T01:00:33.548Z,81.40
2022-08-29T01:01:33.225Z,84.40
2022-08-29T01:02:36.118Z,81.30
2022-08-29T01:03:34.077Z,80.40
2022-08-29T01:04:33.077Z,79.70
2022-08-29T01:05:33.493Z,75.20
2022-08-29T01:06:33.045Z,76.40
2022-08-29T01:07:33.048Z,75.70
2022-08-29T01:08:33.018Z,79.00
2022-08-29T01:09:33.000Z,90.80
2022-08-29T01:10:33.313Z,82.20
2022-08-29T01:11:32.978Z,86.90
2022-08-29T01:12:32.988Z,76.50
2022-08-29T01:13:32.949Z,76.10
2022-08-29T01:14:36.675Z,87.80
2022-08-29T01:15:34.286Z,83.30
2022-08-29T01:16:32.952Z,85.00
2022-08-29T01:17:32.897Z,83.70
2022-08-29T01:18:32.888Z,85.80
2022-08-29T01:19:32.878Z,88.50
2022-08-29T01:20:33.292Z,86.60
2022-08-29T01:21:32.855Z,84.00
2022-08-29T01:22:32.880Z,87.40
2022-08-29T01:23:32.835Z,80.90
2022-08-29T01:24:32.823Z,82.30
2022-08-29T01:25:33.255Z,79.00
2022-08-29T01:26:32.785Z,74.70
2022-08-29T01:27:32.773Z,84.70
2022-08-29T01:28:32.784Z,88.90
2022-08-29T01:29:32.742Z,91.10
2022-08-29T01:30:33.166Z,79.10
2022-08-29T01:31:38.561Z,82.60
2022-08-29T01:32:33.779Z,78.90
2022-08-29T01:33:32.714Z,80.70
2022-08-29T01:34:32.683Z,81.30
2022-08-29T01:35:33.104Z,79.70
2022-08-29T01:36:32.663Z,73.80
2022-08-29T01:37:32.656Z,79.60
2022-08-29T01:38:32.633Z,85.10
2022-08-29T01:39:32.613Z,85.30
2022-08-29T01:40:33.101Z,84.70
2022-08-29T01:41:32.593Z,79.50
2022-08-29T01:42:33.442Z,90.80
2022-08-29T01:43:32.563Z,86.90
2022-08-29T01:44:32.557Z,87.10
2022-08-29T01:45:32.604Z,83.30
2022-08-29T01:46:32.962Z,86.60
2022-08-29T01:47:32.513Z,80.40
2022-08-29T01:48:32.544Z,85.00
2022-08-29T01:49:32.510Z,73.40
2022-08-29T01:50:32.486Z,75.70
2022-08-29T01:51:32.909Z,82.20
2022-08-29T01:52:32.448Z,78.40
2022-08-29T01:53:32.451Z,74.30
2022-08-29T01:54:32.429Z,75.10
2022-08-29T01:55:32.409Z,87.70
2022-08-29T01:56:32.808Z,84.00
2022-08-29T01:57:32.370Z,85.10
2022-08-29T01:58:32.389Z,93.60
2022-08-29T01:59:32.350Z,89.00
2022-08-29T02:00:32.346Z,88.80
2022-08-29T02:01:32.843Z,88.40
2022-08-29T02:02:32.379Z,92.40
2022-08-29T02:03:32.307Z,89.90
2022-08-29T02:04:32.291Z,81.80
2022-08-29T02:05:32.279Z,93.70
2022-08-29T02:06:32.608Z,87.30
2022-08-29T02:07:32.258Z,85.20
2022-08-29T02:08:32.255Z,88.80
2022-08-29T02:09:32.232Z,84.50
2022-08-29T02:10:32.225Z,89.80
2022-08-29T02:11:32.566Z,85.00
2022-08-29T02:12:32.197Z,92.80
2022-08-29T02:13:32.177Z,91.40
2022-08-29T02:14:32.167Z,87.10
2022-08-29T02:15:32.154Z,82.30
2022-08-29T02:16:32.609Z,75.90
2022-08-29T02:17:32.126Z,86.00
2022-08-29T02:18:32.117Z,84.30
2022-08-29T02:19:32.116Z,89.00
2022-08-29T02:20:32.115Z,79.80
2022-08-29T02:21:32.517Z,93.50
2022-08-29T02:22:32.066Z,84.40
2022-08-29T02:23:32.046Z,75.30
2022-08-29T02:24:32.045Z,86.00
2022-08-29T02:25:32.022Z,89.30
2022-08-29T02:26:32.394Z,80.00
2022-08-29T02:27:31.995Z,82.10
2022-08-29T02:28:32.003Z,79.20
2022-08-29T02:29:37.895Z,82.20
2022-08-29T02:30:32.975Z,87.50
2022-08-29T02:31:31.980Z,82.90
2022-08-29T02:32:32.256Z,97.00
2022-08-29T02:33:31.913Z,87.90
2022-08-29T02:34:31.933Z,83.10
2022-08-29T02:35:34.967Z,81.50
2022-08-29T02:36:31.886Z,83.90
2022-08-29T02:37:32.237Z,91.20
2022-08-29T02:38:31.875Z,86.60
2022-08-29T02:39:31.842Z,85.80
2022-08-29T02:40:32.151Z,94.80
2022-08-29T02:41:31.823Z,89.00
2022-08-29T02:42:32.232Z,84.80
2022-08-29T02:43:31.792Z,85.80
2022-08-29T02:44:31.783Z,83.40
2022-08-29T02:45:31.769Z,84.10
2022-08-29T02:46:31.832Z,86.30
2022-08-29T02:47:32.171Z,93.90
2022-08-29T02:48:31.731Z,84.00
2022-08-29T02:49:31.734Z,91.60
2022-08-29T02:50:31.740Z,88.00
2022-08-29T02:51:31.693Z,90.40
2022-08-29T02:52:36.699Z,93.70
2022-08-29T02:53:32.689Z,90.80
2022-08-29T02:54:31.652Z,82.30
2022-08-29T02:55:31.649Z,84.60
2022-08-29T02:56:31.657Z,84.10
2022-08-29T02:57:31.946Z,82.00
2022-08-29T02:58:31.614Z,84.70
2022-08-29T02:59:31.597Z,82.20
2022-08-29T03:00:31.606Z,74.10
2022-08-29T03:01:31.652Z,77.40
2022-08-29T03:02:31.986Z,83.90
2022-08-29T03:03:31.559Z,84.10
2022-08-29T03:04:31.534Z,90.00
2022-08-29T03:05:31.507Z,90.20
2022-08-29T03:06:31.487Z,86.20
2022-08-29T03:07:31.723Z,88.10
2022-08-29T03:08:31.502Z,93.10
2022-08-29T03:09:31.550Z,87.20
2022-08-29T03:10:31.467Z,94.80
2022-08-29T03:11:31.426Z,84.50
2022-08-29T03:12:32.243Z,92.60
2022-08-29T03:13:31.434Z,90.40
2022-08-29T03:14:31.416Z,91.20
2022-08-29T03:15:31.376Z,78.70
2022-08-29T03:16:31.401Z,85.60
2022-08-29T03:17:31.662Z,83.40
2022-08-29T03:18:31.345Z,82.00
2022-08-29T03:19:31.326Z,90.40
2022-08-29T03:20:32.315Z,84.70
2022-08-29T03:21:31.294Z,86.50
2022-08-29T03:22:31.505Z,93.50
2022-08-29T03:23:31.403Z,89.10
2022-08-29T03:24:31.266Z,84.20
2022-08-29T03:25:31.246Z,78.50
2022-08-29T03:26:31.235Z,81.90
2022-08-29T03:27:31.522Z,82.10
2022-08-29T03:28:31.212Z,75.40
2022-08-29T03:29:31.203Z,80.10
2022-08-29T03:30:31.213Z,87.90
2022-08-29T03:31:31.270Z,77.80
2022-08-29T03:32:31.174Z,77.00
2022-08-29T03:33:31.472Z,87.70
2022-08-29T03:34:31.132Z,79.80
2022-08-29T03:35:31.121Z,76.90
2022-08-29T03:36:31.111Z,78.80
2022-08-29T03:37:31.092Z,83.80
2022-08-29T03:38:31.414Z,85.90
2022-08-29T03:39:31.091Z,85.10
2022-08-29T03:40:31.093Z,83.70
2022-08-29T03:41:31.040Z,91.00
2022-08-29T03:42:31.081Z,87.90
2022-08-29T03:43:31.445Z,80.90
2022-08-29T03:44:31.029Z,83.50
2022-08-29T03:45:31.000Z,80.00
2022-08-29T03:46:31.018Z,88.00
2022-08-29T03:47:30.971Z,77.50
2022-08-29T03:48:31.577Z,87.70
2022-08-29T03:49:30.949Z,88.90
2022-08-29T03:50:30.958Z,96.10
2022-08-29T03:51:30.935Z,83.10
2022-08-29T03:52:30.909Z,98.40
2022-08-29T03:53:31.422Z,82.00
2022-08-29T03:54:30.892Z,77.90
2022-08-29T03:55:30.868Z,79.90
2022-08-29T03:56:30.886Z,81.70
2022-08-29T03:57:30.849Z,83.00
2022-08-29T03:58:31.274Z,80.90
2022-08-29T03:59:30.820Z,87.90
2022-08-29T04:00:30.833Z,88.90
2022-08-29T04:01:30.843Z,88.20
2022-08-29T04:02:30.836Z,88.70
2022-08-29T04:03:31.629Z,80.30
2022-08-29T04:04:30.767Z,83.60
2022-08-29T04:05:30.766Z,82.50
2022-08-29T04:06:30.749Z,85.40
2022-08-29T04:07:30.748Z,84.00
2022-08-29T04:08:31.239Z,81.50
2022-08-29T04:09:30.707Z,81.30
2022-08-29T04:10:30.689Z,74.50
2022-08-29T04:11:30.686Z,81.30
2022-08-29T04:12:30.663Z,84.60
2022-08-29T04:13:31.185Z,90.60
2022-08-29T04:14:30.645Z,80.30
2022-08-29T04:15:30.626Z,81.20
2022-08-29T04:16:31.238Z,78.30
2022-08-29T04:17:30.604Z,82.80
2022-08-29T04:18:31.034Z,91.60
2022-08-29T04:19:30.575Z,76.70
2022-08-29T04:20:30.564Z,81.30
2022-08-29T04:21:30.553Z,83.50
2022-08-29T04:22:30.533Z,78.60
2022-08-29T04:23:37.899Z,83.50
2022-08-29T04:24:38.546Z,77.10
2022-08-29T04:25:37.911Z,72.30
2022-08-29T04:26:37.031Z,67.10
2022-08-29T04:29:50.173Z,71.90
2022-08-29T04:30:56.877Z,75.00
2022-08-29T04:31:56.827Z,83.80
2022-08-29T04:32:56.813Z,74.20
2022-08-29T04:33:50.176Z,82.60
2022-08-29T04:34:49.766Z,87.00
2022-08-29T04:35:49.795Z,81.40
2022-08-29T04:36:49.732Z,90.60
2022-08-29T04:37:49.726Z,86.30
2022-08-29T04:38:50.155Z,103.10
2022-08-29T04:39:49.732Z,91.80
2022-08-29T04:40:49.696Z,80.80
2022-08-29T04:41:49.684Z,81.60
2022-08-29T04:42:49.664Z,84.30
2022-08-29T04:43:50.094Z,80.70
2022-08-29T04:44:49.637Z,91.30
2022-08-29T04:45:49.636Z,82.40
2022-08-29T04:46:49.648Z,85.50
2022-08-29T04:47:49.710Z,85.70
2022-08-29T04:48:49.942Z,76.70
2022-08-29T04:49:49.603Z,82.90
2022-08-29T04:50:50.556Z,79.60
2022-08-29T04:51:49.551Z,83.90
2022-08-29T04:52:49.551Z,77.00
2022-08-29T04:53:49.540Z,86.10
2022-08-29T04:54:49.952Z,70.80
2022-08-29T04:55:49.544Z,72.70
2022-08-29T04:56:49.503Z,77.90
2022-08-29T04:57:49.471Z,74.90
2022-08-29T04:58:49.882Z,76.70
2022-08-29T04:59:49.457Z,81.40
2022-08-29T05:00:49.440Z,79.60
2022-08-29T05:01:49.452Z,85.60
2022-08-29T05:02:49.464Z,80.10
2022-08-29T05:03:49.411Z,85.90
2022-08-29T05:04:49.819Z,86.20
2022-08-29T05:05:49.389Z,89.00
2022-08-29T05:06:49.352Z,89.80
2022-08-29T05:07:49.339Z,90.30
2022-08-29T05:08:58.719Z,87.50
2022-08-29T05:09:50.830Z,84.30
2022-08-29T05:10:49.297Z,86.50
2022-08-29T05:11:49.309Z,86.70
2022-08-29T05:12:49.269Z,79.90
2022-08-29T05:13:49.269Z,88.50
2022-08-29T05:14:49.661Z,86.70
2022-08-29T05:15:49.277Z,90.40
2022-08-29T05:16:49.244Z,89.50
2022-08-29T05:17:49.294Z,89.50
2022-08-29T05:18:49.206Z,81.90
2022-08-29T05:19:49.508Z,89.60
2022-08-29T05:20:49.186Z,90.40
2022-08-29T05:21:49.450Z,83.00
2022-08-29T05:22:49.145Z,85.50
2022-08-29T05:23:49.127Z,77.10
2022-08-29T05:24:49.527Z,84.50
2022-08-29T05:25:49.106Z,83.50
2022-08-29T05:26:49.095Z,77.30
2022-08-29T05:27:49.076Z,73.50
2022-08-29T05:28:49.067Z,81.80
2022-08-29T05:29:49.485Z,92.50
2022-08-29T05:30:49.065Z,87.10
2022-08-29T05:31:49.027Z,86.50
2022-08-29T05:32:49.054Z,82.70
2022-08-29T05:33:48.995Z,91.70
2022-08-29T05:34:49.305Z,94.50
2022-08-29T05:35:48.991Z,89.70
2022-08-29T05:36:48.974Z,87.70
2022-08-29T05:37:48.966Z,85.00
2022-08-29T05:38:48.924Z,84.40
2022-08-29T05:39:49.357Z,86.50
2022-08-29T05:40:48.902Z,94.60
2022-08-29T05:41:48.891Z,89.80
2022-08-29T05:42:49.500Z,92.80
2022-08-29T05:43:48.894Z,80.10
2022-08-29T05:44:49.154Z,82.10
2022-08-29T05:45:48.932Z,83.20
2022-08-29T05:46:48.832Z,77.00
2022-08-29T05:47:48.851Z,75.80
2022-08-29T05:48:48.802Z,69.00
2022-08-29T05:49:49.255Z,74.30
2022-08-29T05:50:48.770Z,66.50
2022-08-29T05:51:48.773Z,70.50
2022-08-29T05:52:48.750Z,67.40
2022-08-29T05:53:48.751Z,50.40
2022-08-29T05:54:49.172Z,45.90
2022-08-29T05:55:48.717Z,56.20
2022-08-29T05:56:48.709Z,54.00
2022-08-29T05:57:48.732Z,49.30
2022-08-29T05:58:48.678Z,37.30
2022-08-29T05:59:48.694Z,39.40
2022-08-29T06:00:48.871Z,32.20
2022-08-29T06:01:48.648Z,34.90
2022-08-29T06:02:48.743Z,37.20
2022-08-29T06:03:48.646Z,28.50
2022-08-29T06:04:49.037Z,28.80
2022-08-29T06:05:48.587Z,23.70
2022-08-29T06:06:48.679Z,22.70
2022-08-29T06:07:48.579Z,27.90
2022-08-29T06:08:48.564Z,24.40
2022-08-29T06:09:48.527Z,29.50
2022-08-29T06:10:48.812Z,31.60
2022-08-29T06:11:48.503Z,23.70
2022-08-29T06:12:48.487Z,21.30
2022-08-29T06:13:48.500Z,25.00
2022-08-29T06:14:50.534Z,23.30
2022-08-29T06:15:48.521Z,29.90
2022-08-29T06:16:48.429Z,30.20
2022-08-29T06:17:48.432Z,27.80
2022-08-29T06:18:48.407Z,25.80
2022-08-29T06:19:48.408Z,18.60
2022-08-29T06:20:48.827Z,17.90
2022-08-29T06:21:48.396Z,12.40
2022-08-29T06:22:48.375Z,9.30
2022-08-29T06:23:48.440Z,14.60
2022-08-29T06:24:48.648Z,9.70
2022-08-29T06:25:48.327Z,14.80
2022-08-29T06:26:48.311Z,10.70
2022-08-29T06:27:48.297Z,12.60
2022-08-29T06:28:48.320Z,9.80
2022-08-29T06:29:48.287Z,11.50
2022-08-29T06:30:48.642Z,11.10
2022-08-29T06:31:48.299Z,10.30
2022-08-29T06:32:48.232Z,12.40
2022-08-29T06:33:48.247Z,14.10
2022-08-29T06:34:48.427Z,14.30
2022-08-29T06:35:48.204Z,14.20
2022-08-29T06:36:48.208Z,10.20
2022-08-29T06:37:48.176Z,10.30
2022-08-29T06:38:48.158Z,13.00
2022-08-29T06:39:48.576Z,14.10
2022-08-29T06:40:48.197Z,14.40
2022-08-29T06:41:48.236Z,11.80
2022-08-29T06:42:48.115Z,10.00
2022-08-29T06:43:48.126Z,12.80
2022-08-29T06:44:48.430Z,14.40
2022-08-29T06:45:48.127Z,12.40
2022-08-29T06:46:48.066Z,11.50
2022-08-29T06:47:48.047Z,14.00
2022-08-29T06:48:48.037Z,20.00
2022-08-29T06:49:48.017Z,21.90
2022-08-29T06:50:48.316Z,23.60
2022-08-29T06:51:48.005Z,21.40
2022-08-29T06:52:47.979Z,27.70
2022-08-29T06:53:47.955Z,32.60
2022-08-29T06:54:48.182Z,31.40
2022-08-29T06:55:47.945Z,23.50
2022-08-29T06:56:47.946Z,23.70
2022-08-29T06:57:47.905Z,21.70
2022-08-29T06:58:47.925Z,22.70
2022-08-29T06:59:48.325Z,24.90
2022-08-29T07:00:49.784Z,19.70
2022-08-29T07:01:47.907Z,19.90
2022-08-29T07:02:51.383Z,24.60
2022-08-29T07:03:47.865Z,21.50
2022-08-29T07:04:48.158Z,23.00
2022-08-29T07:05:47.814Z,27.40
2022-08-29T07:06:47.815Z,25.40
2022-08-29T07:07:47.794Z,29.70
2022-08-29T07:08:55.365Z,29.40
2022-08-29T07:09:49.093Z,31.90
2022-08-29T07:10:47.742Z,35.90
2022-08-29T07:11:47.733Z,32.10
2022-08-29T07:12:47.742Z,24.90
2022-08-29T07:13:47.710Z,25.20
2022-08-29T07:14:48.133Z,30.70
2022-08-29T07:15:47.750Z,26.20
2022-08-29T07:16:47.684Z,23.10
2022-08-29T07:17:47.672Z,22.80
2022-08-29T07:18:47.676Z,18.10
2022-08-29T07:19:47.632Z,20.00
2022-08-29T07:20:48.069Z,22.20
2022-08-29T07:21:47.602Z,27.20
2022-08-29T07:22:47.596Z,27.90
2022-08-29T07:23:47.584Z,37.40
2022-08-29T07:24:48.186Z,36.50
2022-08-29T07:25:47.612Z,39.80
2022-08-29T07:26:47.649Z,33.40
2022-08-29T07:27:47.529Z,31.60
2022-08-29T07:28:47.529Z,37.00
2022-08-29T07:29:50.706Z,42.80
2022-08-29T07:30:47.556Z,39.60
2022-08-29T07:31:47.518Z,40.10
2022-08-29T07:32:47.474Z,41.50
2022-08-29T07:33:47.473Z,45.70
2022-08-29T07:34:51.772Z,53.80
2022-08-29T07:35:48.428Z,51.50
2022-08-29T07:36:47.435Z,49.80
2022-08-29T07:37:50.729Z,52.00
2022-08-29T07:38:47.411Z,47.40
2022-08-29T07:39:47.392Z,58.00
2022-08-29T07:40:47.912Z,55.30
2022-08-29T07:41:47.344Z,49.00
2022-08-29T07:42:47.350Z,58.20
2022-08-29T07:43:47.323Z,51.80
2022-08-29T07:44:47.731Z,53.20
2022-08-29T07:45:47.426Z,54.80
2022-08-29T07:46:47.380Z,57.00
2022-08-29T07:47:47.277Z,53.40
2022-08-29T07:48:47.271Z,54.60
2022-08-29T07:49:47.252Z,45.90
2022-08-29T07:50:47.741Z,31.90
2022-08-29T07:51:47.220Z,21.10
2022-08-29T07:52:47.211Z,10.70
2022-08-29T07:53:47.202Z,4.60
2022-08-29T07:54:47.647Z,5.30
2022-08-29T07:55:47.173Z,6.70
2022-08-29T07:56:47.165Z,6.20
2022-08-29T07:57:47.150Z,7.60
2022-08-29T07:58:47.149Z,7.00
2022-08-29T07:59:47.635Z,3.80
2022-08-29T08:00:47.166Z,8.20
2022-08-29T08:01:47.205Z,4.60
2022-08-29T08:02:47.132Z,5.50
2022-08-29T08:03:47.084Z,7.50
2022-08-29T08:04:47.504Z,13.10
2022-08-29T08:05:48.050Z,9.40
2022-08-29T08:06:47.070Z,8.60
2022-08-29T08:07:47.388Z,8.40
2022-08-29T08:08:47.013Z,11.00
2022-08-29T08:09:47.454Z,10.40
2022-08-29T08:10:51.379Z,13.10
2022-08-29T08:11:47.991Z,8.70
2022-08-29T08:12:46.996Z,6.50
2022-08-29T08:13:46.962Z,6.00
2022-08-29T08:14:47.381Z,7.80
2022-08-29T08:15:48.613Z,5.50
2022-08-29T08:16:46.975Z,7.30
2022-08-29T08:17:46.912Z,7.20
2022-08-29T08:18:46.890Z,7.30
2022-08-29T08:19:47.224Z,6.70
2022-08-29T08:20:46.861Z,4.30
2022-08-29T08:21:49.750Z,6.00
2022-08-29T08:22:46.841Z,3.60
2022-08-29T08:23:46.841Z,4.90
2022-08-29T08:24:47.264Z,3.80
2022-08-29T08:25:46.826Z,2.50
2022-08-29T08:26:46.803Z,5.00
2022-08-29T08:27:46.790Z,5.00
2022-08-29T08:28:46.773Z,3.10
2022-08-29T08:29:47.113Z,2.70
2022-08-29T08:30:46.786Z,3.20
2022-08-29T08:31:46.740Z,5.00
2022-08-29T08:32:48.704Z,0.80
2022-08-29T08:33:46.704Z,2.40
2022-08-29T08:34:46.733Z,4.30
2022-08-29T08:35:47.113Z,5.90
2022-08-29T08:36:46.683Z,5.50
2022-08-29T08:37:46.656Z,4.00
2022-08-29T08:38:46.664Z,4.30
2022-08-29T08:39:46.680Z,3.60
2022-08-29T08:40:46.672Z,3.50
2022-08-29T08:41:46.595Z,5.00
2022-08-29T08:42:46.598Z,1.60
2022-08-29T08:43:46.572Z,3.10
2022-08-29T08:44:46.932Z,3.40
2022-08-29T08:45:46.569Z,3.60
2022-08-29T08:46:46.542Z,3.60
2022-08-29T08:47:46.534Z,2.40
2022-08-29T08:48:46.523Z,2.80
2022-08-29T08:49:46.571Z,1.70
2022-08-29T08:50:48.332Z,2.40
2022-08-29T08:51:46.484Z,2.90
2022-08-29T08:52:46.511Z,2.50
2022-08-29T08:53:46.473Z,2.80
2022-08-29T08:54:46.823Z,2.90
2022-08-29T08:55:46.434Z,1.50
2022-08-29T08:56:46.425Z,2.00
2022-08-29T08:57:46.404Z,2.50
2022-08-29T08:58:46.413Z,3.40
2022-08-29T08:59:46.814Z,2.70
2022-08-29T09:00:46.353Z,3.00
2022-08-29T09:01:46.345Z,1.80
2022-08-29T09:02:46.373Z,2.40
2022-08-29T09:03:46.323Z,2.10
2022-08-29T09:04:46.690Z,3.50
2022-08-29T09:05:49.217Z,1.10
2022-08-29T09:06:46.296Z,1.90
2022-08-29T09:07:46.265Z,1.40
2022-08-29T09:08:46.277Z,2.00
2022-08-29T09:09:46.685Z,2.00
2022-08-29T09:10:46.245Z,4.40
2022-08-29T09:11:46.235Z,2.20
2022-08-29T09:12:46.222Z,2.10
2022-08-29T09:13:46.203Z,2.90
2022-08-29T09:14:46.482Z,3.10
2022-08-29T09:15:46.163Z,4.00
2022-08-29T09:16:46.224Z,5.10
2022-08-29T09:17:46.140Z,2.50
2022-08-29T09:18:52.854Z,1.80
2022-08-29T09:19:47.515Z,2.00
2022-08-29T09:20:46.142Z,1.70
2022-08-29T09:21:46.120Z,2.90
2022-08-29T09:22:46.121Z,1.70
2022-08-29T09:23:46.068Z,1.90
2022-08-29T09:24:46.493Z,2.00
2022-08-29T09:25:46.081Z,2.50
2022-08-29T09:26:46.024Z,2.30
2022-08-29T09:27:46.044Z,1.70
2022-08-29T09:28:46.049Z,1.60
2022-08-29T09:29:46.012Z,2.90
2022-08-29T09:30:46.425Z,2.30
2022-08-29T09:31:46.062Z,0.80
2022-08-29T09:32:45.991Z,1.90
2022-08-29T09:33:45.952Z,2.00
2022-08-29T09:35:08.052Z,2.40
2022-08-29T09:35:46.944Z,2.10
2022-08-29T09:36:47.913Z,3.20
2022-08-29T09:37:45.905Z,2.00
2022-08-29T09:38:45.912Z,2.20
2022-08-29T09:39:49.964Z,1.80
2022-08-29T09:40:47.362Z,1.30
2022-08-29T09:41:45.842Z,1.80
2022-08-29T09:42:45.860Z,1.00
2022-08-29T09:43:45.830Z,1.00
2022-08-29T09:44:46.193Z,1.70
2022-08-29T09:45:45.878Z,0.50
2022-08-29T09:46:45.811Z,2.40
2022-08-29T09:47:45.793Z,1.20
2022-08-29T09:48:45.781Z,0.90
2022-08-29T09:49:45.792Z,0.50
2022-08-29T09:50:46.121Z,1.00
2022-08-29T09:51:45.727Z,1.10
2022-08-29T09:52:45.731Z,0.60
2022-08-29T09:53:45.724Z,0.40
2022-08-29T09:54:46.072Z,0.70
2022-08-29T09:55:45.661Z,1.60
2022-08-29T09:56:45.660Z,0.20
2022-08-29T09:57:45.762Z,0.60
2022-08-29T09:58:45.642Z,0.90
2022-08-29T09:59:45.614Z,1.20
2022-08-29T10:00:46.032Z,0.50
2022-08-29T10:01:45.690Z,0.50
2022-08-29T10:02:45.650Z,1.30
2022-08-29T10:03:45.554Z,0.60
2022-08-29T10:04:45.893Z,1.50
2022-08-29T10:05:45.541Z,0.80
2022-08-29T10:06:49.463Z,1.00
2022-08-29T10:07:46.542Z,0.90
2022-08-29T10:08:45.532Z,0.70
2022-08-29T10:09:45.819Z,0.70
2022-08-29T10:10:45.482Z,0.80
2022-08-29T10:11:45.485Z,0.90
2022-08-29T10:12:45.469Z,1.00
2022-08-29T10:13:45.475Z,1.20
2022-08-29T10:14:50.283Z,0.70
2022-08-29T10:15:50.906Z,1.30
2022-08-29T10:16:46.467Z,1.10
2022-08-29T10:17:45.402Z,0.20
2022-08-29T10:18:45.382Z,0.90
2022-08-29T10:19:45.812Z,0.50
2022-08-29T10:20:45.420Z,0.30
2022-08-29T10:21:45.335Z,0.30
2022-08-29T10:22:45.344Z,0.80
2022-08-29T10:23:45.307Z,0.80
2022-08-29T10:24:45.666Z,0.30
2022-08-29T10:25:45.325Z,0.50
2022-08-29T10:26:45.344Z,0.60
2022-08-29T10:27:45.352Z,1.30
2022-08-29T10:28:45.440Z,0.30
2022-08-29T10:29:45.278Z,0.60
2022-08-29T10:30:45.551Z,0.30
2022-08-29T10:31:45.278Z,0.60
2022-08-29T10:32:45.210Z,0.70
2022-08-29T10:33:45.209Z,0.30
2022-08-29T10:34:45.504Z,0.20
2022-08-29T10:35:45.181Z,0.40
2022-08-29T10:36:45.226Z,0.20
2022-08-29T10:37:45.148Z,0.50
2022-08-29T10:38:45.172Z,0.30
2022-08-29T10:39:45.111Z,0.50
2022-08-29T10:40:45.584Z,0.30
2022-08-29T10:41:49.637Z,0.30
2022-08-29T10:42:46.090Z,0.20
2022-08-29T10:43:45.072Z,0.40
2022-08-29T10:44:45.540Z,0.30
2022-08-29T10:45:45.156Z,0.30
2022-08-29T10:46:45.059Z,0.30
2022-08-29T10:47:45.171Z,0.90
2022-08-29T10:48:45.749Z,0.20
2022-08-29T10:49:45.191Z,0.30
2022-08-29T10:50:46.155Z,0.30
2022-08-29T10:51:45.028Z,0.30
2022-08-29T10:52:44.973Z,0.50
2022-08-29T10:53:45.334Z,0.20
2022-08-29T10:54:45.209Z,0.30
2022-08-29T10:55:44.963Z,0.30
2022-08-29T10:56:44.920Z,0.60
2022-08-29T10:57:44.900Z,0.50
2022-08-29T10:58:44.862Z,0.70
2022-08-29T10:59:44.899Z,0.30
2022-08-29T11:00:45.201Z,0.30
2022-08-29T11:01:44.889Z,0.60
2022-08-29T11:02:44.820Z,0.20
2022-08-29T11:03:44.934Z,0.50
2022-08-29T11:04:45.271Z,0.40
2022-08-29T11:05:45.231Z,0.20
2022-08-29T11:06:45.040Z,0.20
2022-08-29T11:07:44.792Z,0.20
2022-08-29T11:08:44.740Z,0.20
2022-08-29T11:09:45.365Z,0.30
2022-08-29T11:10:44.881Z,0.50
2022-08-29T11:11:44.757Z,0.20
2022-08-29T11:12:44.680Z,0.20
2022-08-29T11:13:44.682Z,0.20
2022-08-29T11:14:45.053Z,0.30
2022-08-29T11:15:44.687Z,0.30
2022-08-29T11:16:44.667Z,0.50
2022-08-29T11:17:44.640Z,0.30
2022-08-29T11:18:44.628Z,0.30
2022-08-29T11:19:45.009Z,0.50
2022-08-29T11:20:44.629Z,0.50
2022-08-29T11:21:44.590Z,0.50
2022-08-29T11:22:44.600Z,0.30
2022-08-29T11:23:44.608Z,0.30
2022-08-29T11:24:47.235Z,0.70
2022-08-29T11:25:44.899Z,0.60
2022-08-29T11:26:44.777Z,0.30
2022-08-29T11:27:44.578Z,0.50
2022-08-29T11:29:44.536Z,0.40
2022-08-29T11:30:47.948Z,0.40
2022-08-29T11:31:44.554Z,0.20
2022-08-29T11:32:44.780Z,0.20
2022-08-29T11:33:44.427Z,0.10
2022-08-29T11:34:44.813Z,0.20
2022-08-29T11:35:44.437Z,0.40
2022-08-29T11:36:44.433Z,0.40
2022-08-29T11:37:44.381Z,0.20
2022-08-29T11:38:44.383Z,0.40
2022-08-29T11:39:44.349Z,0.70
2022-08-29T11:40:48.441Z,0.30
2022-08-29T11:41:44.449Z,0.80
2022-08-29T11:42:51.813Z,0.20
2022-08-29T11:43:45.300Z,0.20
2022-08-29T11:44:44.850Z,0.20
2022-08-29T11:45:44.290Z,0.90
2022-08-29T11:46:44.292Z,0.50
2022-08-29T11:47:44.281Z,0.30
2022-08-29T11:48:44.230Z,0.60
2022-08-29T11:49:44.270Z,0.20
2022-08-29T11:50:44.729Z,0.50
2022-08-29T11:51:44.231Z,0.50
2022-08-29T11:52:44.241Z,0.70
2022-08-29T11:53:44.218Z,0.30
2022-08-29T11:54:44.848Z,0.30
2022-08-29T11:55:44.222Z,0.30
2022-08-29T11:56:44.155Z,0.40
2022-08-29T11:57:44.127Z,0.50
2022-08-29T11:58:46.108Z,0.20
2022-08-29T11:59:44.123Z,1.80
2022-08-29T12:00:44.579Z,0.40
2022-08-29T12:01:44.225Z,0.30
2022-08-29T12:02:48.742Z,0.20
2022-08-29T12:03:44.041Z,0.70
2022-08-29T12:04:44.478Z,0.20
2022-08-29T12:05:44.011Z,0.50
2022-08-29T12:06:44.011Z,0.20
2022-08-29T12:07:44.031Z,0.30
2022-08-29T12:08:44.000Z,0.40
2022-08-29T12:09:44.327Z,0.40
2022-08-29T12:10:43.993Z,0.30
2022-08-29T12:11:43.950Z,0.20
2022-08-29T12:12:43.977Z,0.40
2022-08-29T12:13:43.920Z,0.30
2022-08-29T12:14:44.381Z,0.50
2022-08-29T12:15:43.922Z,0.50
2022-08-29T12:16:43.910Z,0.30
2022-08-29T12:18:01.024Z,0.20
2022-08-29T12:18:44.861Z,0.20
2022-08-29T12:19:43.880Z,0.40
2022-08-29T12:20:44.431Z,0.20
2022-08-29T12:21:43.840Z,0.30
2022-08-29T12:23:43.830Z,0.30
2022-08-29T12:24:44.201Z,0.30
2022-08-29T12:25:44.812Z,0.30
2022-08-29T12:26:43.771Z,0.30
2022-08-29T12:27:43.758Z,0.30
2022-08-29T12:28:43.740Z,0.30
2022-08-29T12:29:44.962Z,0.30
2022-08-29T12:30:44.109Z,1.10
2022-08-29T12:31:51.685Z,0.40
2022-08-29T12:32:44.720Z,0.20
2022-08-29T12:33:43.696Z,0.30
2022-08-29T12:34:44.035Z,0.30
2022-08-29T12:35:43.640Z,0.40
2022-08-29T12:36:52.134Z,0.50
2022-08-29T12:37:44.651Z,0.30
2022-08-29T12:38:43.620Z,0.30
2022-08-29T12:39:44.056Z,0.20
2022-08-29T12:40:43.646Z,0.50
2022-08-29T12:41:43.561Z,0.20
2022-08-29T12:42:43.545Z,0.10
2022-08-29T12:43:43.567Z,0.30
2022-08-29T12:44:43.958Z,0.50
2022-08-29T12:45:43.510Z,0.30
2022-08-29T12:46:43.561Z,0.30
2022-08-29T12:47:46.029Z,0.60
2022-08-29T12:48:43.490Z,0.30
2022-08-29T12:49:44.910Z,0.60
2022-08-29T12:50:43.451Z,0.50
2022-08-29T12:51:43.449Z,0.10
2022-08-29T12:52:43.440Z,0.20
2022-08-29T12:53:43.427Z,0.40
2022-08-29T12:54:45.969Z,0.30
2022-08-29T12:55:43.380Z,0.20
2022-08-29T12:56:43.411Z,0.20
2022-08-29T12:57:43.381Z,0.10
2022-08-29T12:58:43.367Z,0.30
2022-08-29T12:59:43.349Z,0.50
2022-08-29T13:00:43.809Z,0.30
2022-08-29T13:01:43.417Z,0.20
2022-08-29T13:02:43.345Z,0.20
2022-08-29T13:03:43.260Z,0.30
2022-08-29T13:04:43.700Z,0.40
2022-08-29T13:05:43.370Z,0.30
2022-08-29T13:06:43.230Z,0.40